createdAt,value
2018-12-26T00:00:49.076Z,11.50
2018-12-26T00:03:16.494Z,12.20
2018-12-26T00:06:03.081Z,11.50
2018-12-26T00:14:33.638Z,11.20
2018-12-26T00:17:20.388Z,10.53
2018-12-26T00:19:48.045Z,11.00
2018-12-26T00:22:15.548Z,12.97
2018-12-26T00:24:42.763Z,11.43
2018-12-26T00:27:10.009Z,11.30
2018-12-26T00:29:37.515Z,12.63
2018-12-26T00:32:04.729Z,10.80
2018-12-26T00:34:31.953Z,12.00
2018-12-26T00:36:59.571Z,12.53
2018-12-26T00:42:27.605Z,11.90
2018-12-26T00:45:14.657Z,11.50
2018-12-26T00:47:41.903Z,11.63
2018-12-26T00:50:09.068Z,10.97
2018-12-26T00:52:36.156Z,11.70
2018-12-26T00:55:35.211Z,12.77
2018-12-26T00:58:02.395Z,11.13
2018-12-26T01:00:29.619Z,11.30
2018-12-26T01:03:16.264Z,11.43
2018-12-26T01:11:51.353Z,10.77
2018-12-26T01:14:18.512Z,11.17
2018-12-26T01:16:45.676Z,11.40
2018-12-26T01:19:12.864Z,10.73
2018-12-26T01:21:40.151Z,11.80
2018-12-26T01:24:39.049Z,12.37
2018-12-26T01:27:06.649Z,11.90
2018-12-26T01:29:33.835Z,11.80
2018-12-26T01:32:01.034Z,12.10
2018-12-26T01:34:28.135Z,12.10
2018-12-26T01:36:55.284Z,11.60
2018-12-26T01:42:23.273Z,11.93
2018-12-26T01:44:50.670Z,11.60
2018-12-26T01:49:57.373Z,10.90
2018-12-26T01:52:24.527Z,10.53
2018-12-26T01:54:51.728Z,10.53
2018-12-26T01:57:18.925Z,13.20
2018-12-26T02:02:58.796Z,12.20
2018-12-26T02:05:37.958Z,11.27
2018-12-26T02:08:05.270Z,11.37
2018-12-26T02:10:32.341Z,12.37
2018-12-26T02:13:11.725Z,11.97
2018-12-26T02:18:39.544Z,11.63
2018-12-26T02:21:06.751Z,12.00
2018-12-26T02:23:33.985Z,12.43
2018-12-26T02:26:01.201Z,12.67
2018-12-26T02:28:28.359Z,12.77
2018-12-26T02:36:48.758Z,11.50
2018-12-26T02:39:15.965Z,12.87
2018-12-26T02:41:43.161Z,11.40
2018-12-26T02:44:29.919Z,12.63
2018-12-26T02:46:57.078Z,12.40
2018-12-26T02:49:24.613Z,12.80
2018-12-26T02:51:51.846Z,11.77
2018-12-26T02:54:38.484Z,11.33
2018-12-26T02:57:06.166Z,12.00
2018-12-26T02:59:33.342Z,13.20
2018-12-26T03:02:00.524Z,11.97
2018-12-26T03:04:47.444Z,12.20
2018-12-26T03:07:34.358Z,12.10
2018-12-26T03:10:01.569Z,12.60
2018-12-26T03:12:30.575Z,13.23
2018-12-26T03:14:57.726Z,13.37
2018-12-26T03:17:25.025Z,11.97
2018-12-26T03:19:52.177Z,11.97
2018-12-26T03:22:38.855Z,13.00
2018-12-26T03:25:46.886Z,13.90
2018-12-26T03:28:14.104Z,13.13
2018-12-26T03:30:41.262Z,11.80
2018-12-26T03:33:19.909Z,12.10
2018-12-26T03:35:46.999Z,12.10
2018-12-26T03:38:14.321Z,13.20
2018-12-26T03:41:22.361Z,12.00
2018-12-26T03:56:07.771Z,11.53
2018-12-26T03:59:05.950Z,10.40
2018-12-26T04:01:33.153Z,10.63
2018-12-26T04:04:00.326Z,12.53
2018-12-26T04:06:27.524Z,13.07
2018-12-26T04:09:14.309Z,12.27
2018-12-26T04:11:41.493Z,12.10
2018-12-26T04:14:49.534Z,12.40
2018-12-26T04:17:16.698Z,13.23
2018-12-26T04:20:24.757Z,14.37
2018-12-26T04:26:12.353Z,13.73
2018-12-26T04:28:39.531Z,13.23
2018-12-26T04:31:06.685Z,13.37
2018-12-26T04:33:33.935Z,13.97
2018-12-26T04:36:20.465Z,14.03
2018-12-26T04:38:47.696Z,15.30
2018-12-26T04:44:16.418Z,16.57
2018-12-26T04:46:44.005Z,17.00
2018-12-26T04:49:11.198Z,16.60
2018-12-26T04:51:57.845Z,18.00
2018-12-26T04:58:07.488Z,19.27
2018-12-26T05:00:34.689Z,17.10
2018-12-26T05:03:01.799Z,17.97
2018-12-26T05:05:28.909Z,17.17
2018-12-26T05:07:55.966Z,17.10
2018-12-26T05:10:23.150Z,17.90
2018-12-26T05:13:02.028Z,17.27
2018-12-26T05:15:29.194Z,19.40
2018-12-26T05:17:56.368Z,17.80
2018-12-26T05:20:23.547Z,17.20
2018-12-26T05:22:50.715Z,17.27
2018-12-26T05:25:17.889Z,17.40
2018-12-26T05:27:45.202Z,17.50
2018-12-26T05:30:12.361Z,18.63
2018-12-26T05:32:39.638Z,17.00
2018-12-26T05:35:06.827Z,17.43
2018-12-26T05:37:34.023Z,17.10
2018-12-26T05:40:01.185Z,15.63
2018-12-26T05:42:28.419Z,15.43
2018-12-26T05:48:03.679Z,15.70
2018-12-26T05:50:50.207Z,16.73
2018-12-26T05:53:36.882Z,16.70
2018-12-26T05:56:04.046Z,15.90
2018-12-26T06:01:11.330Z,15.67
2018-12-26T06:03:58.025Z,17.40
2018-12-26T06:06:25.228Z,18.50
2018-12-26T06:08:52.408Z,18.60
2018-12-26T06:11:19.956Z,18.83
2018-12-26T06:13:47.168Z,16.30
2018-12-26T06:16:14.214Z,16.50
2018-12-26T06:18:41.391Z,18.53
2018-12-26T06:21:08.456Z,16.70
2018-12-26T06:23:35.630Z,20.83
2018-12-26T06:26:02.806Z,17.17
2018-12-26T06:28:30.210Z,16.57
2018-12-26T06:31:16.914Z,18.83
2018-12-26T06:33:44.187Z,16.37
2018-12-26T06:36:11.409Z,18.10
2018-12-26T06:38:39.029Z,18.27
2018-12-26T06:41:06.246Z,16.03
2018-12-26T06:43:52.955Z,16.10
2018-12-26T06:46:20.157Z,16.70
2018-12-26T06:48:47.303Z,18.33
2018-12-26T06:51:15.234Z,18.63
2018-12-26T06:57:03.456Z,16.03
2018-12-26T06:59:50.113Z,15.70
2018-12-26T07:02:36.876Z,16.70
2018-12-26T07:05:04.051Z,17.90
2018-12-26T07:07:31.295Z,17.17
2018-12-26T07:09:58.471Z,17.30
2018-12-26T07:15:18.207Z,15.97
2018-12-26T07:17:45.364Z,15.90
2018-12-26T07:23:31.031Z,15.53
2018-12-26T07:25:58.470Z,15.13
2018-12-26T07:28:25.620Z,15.43
2018-12-26T07:30:52.832Z,17.07
2018-12-26T07:33:39.719Z,18.00
2018-12-26T07:36:06.933Z,14.63
2018-12-26T07:42:06.605Z,17.13
2018-12-26T07:45:14.580Z,17.67
2018-12-26T07:48:01.517Z,16.83
2018-12-26T07:50:28.601Z,16.40
2018-12-26T07:53:15.306Z,18.50
2018-12-26T07:56:01.967Z,17.00
2018-12-26T07:58:48.638Z,17.07
2018-12-26T08:06:54.500Z,16.50
2018-12-26T08:09:41.178Z,15.50
2018-12-26T08:12:20.778Z,15.97
2018-12-26T08:17:27.571Z,18.67
2018-12-26T08:19:54.732Z,16.97
2018-12-26T08:22:21.936Z,16.90
2018-12-26T08:27:28.907Z,16.83
2018-12-26T08:29:56.152Z,17.80
2018-12-26T08:32:23.308Z,18.17
2018-12-26T08:34:50.536Z,18.80
2018-12-26T08:40:19.284Z,15.07
2018-12-26T08:42:46.457Z,16.40
2018-12-26T08:45:13.505Z,16.30
2018-12-26T08:48:00.310Z,17.20
2018-12-26T08:50:27.854Z,15.20
2018-12-26T08:52:55.012Z,17.80
2018-12-26T08:55:42.100Z,16.33
2018-12-26T09:01:23.715Z,16.43
2018-12-26T09:03:50.919Z,18.10
2018-12-26T09:06:18.085Z,16.93
2018-12-26T09:09:12.415Z,16.70
2018-12-26T09:11:39.667Z,17.80
2018-12-26T09:14:07.252Z,17.27
2018-12-26T09:17:15.273Z,15.93
2018-12-26T09:19:42.791Z,14.90
2018-12-26T09:22:09.945Z,17.13
2018-12-26T09:24:37.171Z,16.03
2018-12-26T09:27:47.108Z,17.20
2018-12-26T09:30:14.333Z,15.97
2018-12-26T09:32:41.496Z,17.10
2018-12-26T09:38:29.896Z,18.40
2018-12-26T09:40:57.097Z,17.60
2018-12-26T09:43:24.317Z,17.53
2018-12-26T09:48:32.106Z,15.63
2018-12-26T09:50:59.218Z,17.07
2018-12-26T09:53:26.847Z,16.70
2018-12-26T09:55:54.124Z,18.07
2018-12-26T09:58:21.339Z,16.53
2018-12-26T10:00:48.563Z,15.13
2018-12-26T10:03:15.750Z,17.00
2018-12-26T10:06:14.629Z,17.07
2018-12-26T10:08:41.794Z,16.30
2018-12-26T10:11:09.006Z,15.00
2018-12-26T10:14:17.056Z,17.60
2018-12-26T10:16:44.291Z,15.07
2018-12-26T10:19:11.473Z,14.47
2018-12-26T10:21:58.163Z,16.50
2018-12-26T10:27:37.910Z,15.33
2018-12-26T10:30:05.660Z,15.27
2018-12-26T10:32:32.838Z,14.10
2018-12-26T10:40:33.160Z,15.93
2018-12-26T10:43:00.425Z,15.67
2018-12-26T10:45:27.592Z,14.97
2018-12-26T10:47:54.795Z,15.37
2018-12-26T10:50:21.973Z,16.90
2018-12-26T10:53:08.902Z,14.70
2018-12-26T10:55:36.058Z,15.13
2018-12-26T10:58:03.269Z,15.97
2018-12-26T11:00:30.467Z,16.43
2018-12-26T11:02:57.943Z,15.53
2018-12-26T11:08:25.930Z,15.13
2018-12-26T11:10:53.187Z,15.87
2018-12-26T11:13:32.656Z,14.73
2018-12-26T11:15:59.824Z,15.23
2018-12-26T11:18:39.165Z,12.93
2018-12-26T11:21:06.239Z,13.90
2018-12-26T11:23:33.326Z,14.07
2018-12-26T11:26:00.544Z,14.93
2018-12-26T11:28:27.752Z,14.40
2018-12-26T11:33:56.631Z,13.60
2018-12-26T11:36:55.716Z,13.40
2018-12-26T11:39:22.801Z,14.03
2018-12-26T11:44:29.913Z,14.27
2018-12-26T11:46:57.122Z,12.53
2018-12-26T11:49:24.325Z,14.70
2018-12-26T11:51:51.523Z,14.17
2018-12-26T11:54:18.742Z,14.67
2018-12-26T11:56:45.919Z,15.83
2018-12-26T11:59:13.153Z,13.93
2018-12-26T12:01:40.636Z,14.13
2018-12-26T12:04:08.191Z,14.33
2018-12-26T12:06:35.454Z,15.10
2018-12-26T12:12:48.853Z,16.00
2018-12-26T12:15:16.361Z,14.03
2018-12-26T12:17:43.428Z,15.77
2018-12-26T12:20:11.525Z,15.43
2018-12-26T12:22:38.824Z,16.20
2018-12-26T12:25:06.043Z,17.23
2018-12-26T12:27:33.250Z,16.30
2018-12-26T12:30:00.490Z,16.50
2018-12-26T12:32:27.677Z,15.57
2018-12-26T12:34:54.879Z,15.40
2018-12-26T12:37:22.052Z,15.83
2018-12-26T12:39:49.261Z,17.17
2018-12-26T12:48:18.574Z,15.40
2018-12-26T12:51:05.795Z,16.13
2018-12-26T12:53:44.722Z,13.73
2018-12-26T12:56:12.316Z,12.53
2018-12-26T12:59:00.799Z,12.83
2018-12-26T13:04:05.848Z,13.40
2018-12-26T13:09:34.651Z,11.83
2018-12-26T13:12:01.848Z,13.40
2018-12-26T13:14:30.810Z,14.23
2018-12-26T13:16:58.080Z,14.70
2018-12-26T13:19:25.264Z,13.80
2018-12-26T13:21:52.468Z,13.20
2018-12-26T13:24:39.135Z,13.00
2018-12-26T13:27:06.396Z,12.97
2018-12-26T13:29:54.123Z,13.53
2018-12-26T13:35:53.129Z,14.07
2018-12-26T13:38:20.355Z,14.90
2018-12-26T13:43:49.010Z,14.60
2018-12-26T13:46:57.026Z,13.60
2018-12-26T13:55:19.935Z,14.20
2018-12-26T13:57:47.171Z,13.50
2018-12-26T14:00:14.339Z,14.60
2018-12-26T14:02:41.552Z,14.90
2018-12-26T14:05:08.817Z,14.83
2018-12-26T14:07:36.009Z,14.40
2018-12-26T14:10:44.195Z,13.27
2018-12-26T14:13:11.442Z,14.23
2018-12-26T14:15:38.605Z,13.90
2018-12-26T14:18:46.534Z,14.33
2018-12-26T14:24:47.157Z,13.20
2018-12-26T14:27:14.472Z,15.20
2018-12-26T14:29:42.566Z,14.17
2018-12-26T14:32:20.692Z,14.53
2018-12-26T14:34:47.881Z,13.07
2018-12-26T14:37:15.058Z,15.10
2018-12-26T14:40:02.064Z,13.97
2018-12-26T14:42:29.233Z,15.10
2018-12-26T14:44:56.472Z,14.40
2018-12-26T14:47:23.556Z,13.17
2018-12-26T14:49:50.725Z,15.23
2018-12-26T14:52:58.639Z,15.13
2018-12-26T14:55:25.865Z,15.60
2018-12-26T14:57:52.936Z,13.37
2018-12-26T15:03:52.824Z,16.50
2018-12-26T15:06:39.496Z,16.47
2018-12-26T15:09:47.899Z,13.50
2018-12-26T15:12:15.491Z,16.07
2018-12-26T15:14:42.663Z,15.57
2018-12-26T15:17:50.681Z,14.47
2018-12-26T15:20:17.866Z,14.60
2018-12-26T15:22:45.045Z,15.00
2018-12-26T15:28:13.149Z,15.80
2018-12-26T15:30:40.328Z,15.07
2018-12-26T15:33:07.941Z,16.97
2018-12-26T15:35:35.094Z,16.90
2018-12-26T15:38:02.290Z,17.63
2018-12-26T15:40:29.499Z,18.23
2018-12-26T15:45:49.489Z,17.20
2018-12-26T15:48:36.543Z,17.70
2018-12-26T15:51:03.674Z,17.83
2018-12-26T15:53:30.877Z,17.80
2018-12-26T15:58:59.456Z,16.10
2018-12-26T16:01:46.123Z,17.90
2018-12-26T16:04:13.327Z,16.73
2018-12-26T16:06:40.952Z,19.80
2018-12-26T16:09:08.126Z,20.30
2018-12-26T16:11:35.386Z,17.57
2018-12-26T16:17:42.350Z,17.20
2018-12-26T16:20:09.905Z,17.40
2018-12-26T16:22:37.080Z,18.97
2018-12-26T16:25:45.694Z,18.03
2018-12-26T16:28:13.299Z,18.73
2018-12-26T16:30:47.005Z,18.70
2018-12-26T16:33:14.192Z,19.90
2018-12-26T16:35:41.267Z,19.03
2018-12-26T16:38:08.491Z,17.50
2018-12-26T16:40:35.638Z,18.17
2018-12-26T16:43:02.847Z,21.20
2018-12-26T16:45:29.968Z,19.67
2018-12-26T16:47:57.033Z,20.47
2018-12-26T16:50:27.072Z,20.50
2018-12-26T16:53:03.035Z,18.77
2018-12-26T16:55:30.759Z,20.40
2018-12-26T16:58:10.248Z,20.63
2018-12-26T17:00:37.421Z,20.30
2018-12-26T17:03:04.530Z,19.93
2018-12-26T17:05:43.770Z,19.53
2018-12-26T17:08:23.168Z,18.50
2018-12-26T17:11:09.934Z,21.43
2018-12-26T17:13:38.573Z,19.00
2018-12-26T17:16:25.988Z,19.70
2018-12-26T17:18:53.194Z,20.27
2018-12-26T17:21:40.194Z,20.37
2018-12-26T17:27:19.718Z,19.83
2018-12-26T17:29:46.907Z,20.43
2018-12-26T17:32:33.582Z,20.33
2018-12-26T17:38:00.484Z,19.10
2018-12-26T17:40:27.709Z,20.27
2018-12-26T17:42:55.195Z,22.10
2018-12-26T17:46:03.806Z,21.10
2018-12-26T17:48:31.006Z,17.67
2018-12-26T17:51:40.517Z,22.23
2018-12-26T17:54:46.652Z,18.13
2018-12-26T17:57:35.480Z,20.77
2018-12-26T18:00:25.529Z,18.90
2018-12-26T18:05:54.218Z,20.83
2018-12-26T18:08:34.226Z,21.97
2018-12-26T18:11:01.310Z,24.03
2018-12-26T18:13:28.874Z,21.50
2018-12-26T18:18:55.438Z,20.90
2018-12-26T18:21:22.598Z,21.17
2018-12-26T18:23:50.044Z,23.43
2018-12-26T18:26:17.184Z,20.30
2018-12-26T18:28:44.397Z,19.73
2018-12-26T18:31:52.407Z,19.30
2018-12-26T18:34:19.800Z,19.40
2018-12-26T18:37:27.740Z,20.27
2018-12-26T18:39:54.964Z,19.80
2018-12-26T18:42:22.196Z,20.53
2018-12-26T18:50:31.319Z,19.20
2018-12-26T18:56:18.578Z,20.17
2018-12-26T18:58:45.723Z,21.23
2018-12-26T19:01:12.865Z,18.97
2018-12-26T19:03:59.523Z,18.17
2018-12-26T19:06:26.696Z,20.87
2018-12-26T19:09:06.231Z,20.87
2018-12-26T19:11:33.426Z,20.37
2018-12-26T19:14:00.939Z,20.33
2018-12-26T19:19:49.056Z,19.87
2018-12-26T19:22:16.248Z,19.23
2018-12-26T19:25:24.285Z,18.47
2018-12-26T19:31:25.851Z,20.67
2018-12-26T19:34:12.498Z,20.40
2018-12-26T19:36:59.198Z,19.40
2018-12-26T19:39:26.656Z,21.03
2018-12-26T19:41:53.752Z,19.53
2018-12-26T19:44:20.853Z,20.70
2018-12-26T19:46:48.075Z,20.73
2018-12-26T19:49:15.268Z,23.07
2018-12-26T19:51:42.820Z,21.07
2018-12-26T19:54:10.057Z,22.03
2018-12-26T19:56:37.250Z,20.73
2018-12-26T19:59:23.963Z,18.93
2018-12-26T20:01:51.447Z,21.20
2018-12-26T20:04:19.011Z,19.93
2018-12-26T20:07:27.239Z,20.40
2018-12-26T20:09:54.477Z,19.50
2018-12-26T20:15:02.398Z,19.43
2018-12-26T20:17:29.563Z,18.83
2018-12-26T20:19:56.800Z,21.33
2018-12-26T20:22:24.057Z,22.23
2018-12-26T20:24:51.246Z,21.83
2018-12-26T20:27:37.897Z,21.83
2018-12-26T20:33:39.606Z,21.30
2018-12-26T20:36:06.810Z,22.27
2018-12-26T20:38:33.984Z,21.63
2018-12-26T20:41:01.554Z,20.90
2018-12-26T20:43:48.200Z,21.97
2018-12-26T20:46:34.957Z,22.50
2018-12-26T20:49:02.125Z,21.90
2018-12-26T20:51:31.928Z,23.03
2018-12-26T20:53:59.139Z,22.03
2018-12-26T20:56:46.100Z,21.63
2018-12-26T20:59:32.941Z,21.80
2018-12-26T21:02:05.671Z,22.13
2018-12-26T21:04:39.028Z,24.10
2018-12-26T21:07:06.620Z,21.23
2018-12-26T21:09:33.812Z,24.17
2018-12-26T21:12:01.461Z,22.20
2018-12-26T21:14:28.630Z,24.93
2018-12-26T21:17:07.638Z,23.80
2018-12-26T21:19:54.269Z,23.67
2018-12-26T21:22:21.502Z,26.20
2018-12-26T21:24:48.684Z,23.53
2018-12-26T21:27:22.494Z,25.30
2018-12-26T21:29:49.758Z,24.60
2018-12-26T21:32:36.819Z,27.03
2018-12-26T21:35:44.931Z,24.30
2018-12-26T21:38:12.164Z,26.20
2018-12-26T21:40:39.344Z,23.97
2018-12-26T21:43:07.003Z,24.57
2018-12-26T21:45:34.450Z,23.93
2018-12-26T21:48:01.927Z,23.10
2018-12-26T21:50:48.497Z,24.97
2018-12-26T21:56:28.670Z,23.27
2018-12-26T21:59:15.351Z,23.80
2018-12-26T22:01:42.602Z,23.07
2018-12-26T22:07:29.976Z,22.10
2018-12-26T22:12:58.593Z,22.83
2018-12-26T22:15:25.827Z,22.97
2018-12-26T22:17:52.916Z,21.93
2018-12-26T22:20:20.138Z,23.17
2018-12-26T22:22:47.337Z,21.63
2018-12-26T22:25:14.573Z,22.27
2018-12-26T22:28:13.645Z,22.00
2018-12-26T22:30:40.821Z,22.63
2018-12-26T22:33:08.387Z,21.20
2018-12-26T22:35:35.490Z,24.20
2018-12-26T22:38:02.707Z,20.47
2018-12-26T22:40:29.923Z,19.03
2018-12-26T22:45:50.158Z,21.60
2018-12-26T22:48:17.383Z,21.00
2018-12-26T22:54:36.580Z,18.77
2018-12-26T22:57:04.157Z,21.40
2018-12-26T23:00:12.174Z,20.90
2018-12-26T23:02:39.338Z,20.83
2018-12-26T23:05:26.341Z,20.23
2018-12-26T23:11:06.725Z,19.90
2018-12-26T23:13:33.889Z,21.20
2018-12-26T23:16:01.064Z,19.30
2018-12-26T23:18:28.163Z,20.90
2018-12-26T23:20:55.233Z,21.17
2018-12-26T23:24:03.307Z,20.43
2018-12-26T23:26:30.577Z,19.17
2018-12-26T23:32:11.864Z,19.33
2018-12-26T23:34:39.082Z,20.20
2018-12-26T23:37:06.284Z,18.87
2018-12-26T23:39:52.853Z,18.30
2018-12-26T23:42:20.319Z,19.33
2018-12-26T23:45:28.294Z,18.50
2018-12-26T23:47:55.473Z,19.37
2018-12-26T23:50:22.684Z,20.80
2018-12-26T23:52:49.872Z,21.60
2018-12-26T23:55:16.956Z,20.00
2018-12-26T23:57:44.126Z,19.60
